sensor_id;sensor_type;location;lat;lon;timestamp;pressure;altitude;pressure_sealevel;temperature;humidity
48810;BME280;40070;47.322;18.784;2023-08-07T00:00:44;994.56;;;17.48;59.74
48810;BME280;40070;47.322;18.784;2023-08-07T00:02:45;994.57;;;17.55;59.24
48810;BME280;40070;47.322;18.784;2023-08-07T00:04:46;994.61;;;17.58;59.30
48810;BME280;40070;47.322;18.784;2023-08-07T00:06:50;994.61;;;17.48;59.41
48810;BME280;40070;47.322;18.784;2023-08-07T00:08:51;994.65;;;17.48;59.85
48810;BME280;40070;47.322;18.784;2023-08-07T00:10:52;994.69;;;17.61;59.90
48810;BME280;40070;47.322;18.784;2023-08-07T00:12:53;994.69;;;17.57;59.52
48810;BME280;40070;47.322;18.784;2023-08-07T00:14:54;994.69;;;17.58;59.23
48810;BME280;40070;47.322;18.784;2023-08-07T00:16:55;994.68;;;17.54;59.44
48810;BME280;40070;47.322;18.784;2023-08-07T00:18:56;994.70;;;17.55;59.45
48810;BME280;40070;47.322;18.784;2023-08-07T00:20:57;994.82;;;17.58;59.37
48810;BME280;40070;47.322;18.784;2023-08-07T00:22:58;994.78;;;17.53;59.51
48810;BME280;40070;47.322;18.784;2023-08-07T00:24:59;994.76;;;17.54;59.76
48810;BME280;40070;47.322;18.784;2023-08-07T00:27:00;994.71;;;17.57;59.34
48810;BME280;40070;47.322;18.784;2023-08-07T00:29:01;994.71;;;17.62;59.58
48810;BME280;40070;47.322;18.784;2023-08-07T00:31:02;994.77;;;17.57;59.23
48810;BME280;40070;47.322;18.784;2023-08-07T00:33:03;994.76;;;17.57;59.36
48810;BME280;40070;47.322;18.784;2023-08-07T00:35:04;994.81;;;17.61;58.93
48810;BME280;40070;47.322;18.784;2023-08-07T00:37:05;994.79;;;17.74;58.77
48810;BME280;40070;47.322;18.784;2023-08-07T00:39:06;994.79;;;17.72;58.70
48810;BME280;40070;47.322;18.784;2023-08-07T00:41:07;994.77;;;17.67;58.87
48810;BME280;40070;47.322;18.784;2023-08-07T00:43:08;994.76;;;17.58;59.53
48810;BME280;40070;47.322;18.784;2023-08-07T00:45:09;994.80;;;17.63;59.58
48810;BME280;40070;47.322;18.784;2023-08-07T00:47:10;994.82;;;17.59;59.03
48810;BME280;40070;47.322;18.784;2023-08-07T00:49:12;994.81;;;17.71;58.83
48810;BME280;40070;47.322;18.784;2023-08-07T00:51:13;994.83;;;17.66;59.12
48810;BME280;40070;47.322;18.784;2023-08-07T00:53:15;994.83;;;17.87;58.31
48810;BME280;40070;47.322;18.784;2023-08-07T00:55:16;994.82;;;17.95;58.10
48810;BME280;40070;47.322;18.784;2023-08-07T00:57:17;994.85;;;17.77;58.71
48810;BME280;40070;47.322;18.784;2023-08-07T00:59:18;994.79;;;17.75;58.34
48810;BME280;40070;47.322;18.784;2023-08-07T01:01:19;994.75;;;17.67;58.73
48810;BME280;40070;47.322;18.784;2023-08-07T01:03:20;994.72;;;17.76;58.17
48810;BME280;40070;47.322;18.784;2023-08-07T01:05:22;994.66;;;17.68;58.10
48810;BME280;40070;47.322;18.784;2023-08-07T01:07:23;994.70;;;17.82;57.91
48810;BME280;40070;47.322;18.784;2023-08-07T01:09:24;994.70;;;17.82;58.28
48810;BME280;40070;47.322;18.784;2023-08-07T01:14:01;994.67;;;17.69;57.99
48810;BME280;40070;47.322;18.784;2023-08-07T01:16:04;994.73;;;17.43;57.95
48810;BME280;40070;47.322;18.784;2023-08-07T01:18:07;994.75;;;17.45;58.27
48810;BME280;40070;47.322;18.784;2023-08-07T01:20:08;994.71;;;17.58;57.73
48810;BME280;40070;47.322;18.784;2023-08-07T01:22:10;994.71;;;17.44;58.20
48810;BME280;40070;47.322;18.784;2023-08-07T01:24:11;994.83;;;17.40;58.08
48810;BME280;40070;47.322;18.784;2023-08-07T01:26:12;994.84;;;17.44;57.85
48810;BME280;40070;47.322;18.784;2023-08-07T01:28:18;994.82;;;17.45;57.90
48810;BME280;40070;47.322;18.784;2023-08-07T01:30:25;994.84;;;17.52;57.47
48810;BME280;40070;47.322;18.784;2023-08-07T01:32:34;994.87;;;17.37;58.22
48810;BME280;40070;47.322;18.784;2023-08-07T01:34:36;994.77;;;17.44;56.89
48810;BME280;40070;47.322;18.784;2023-08-07T01:36:41;994.78;;;17.49;57.22
48810;BME280;40070;47.322;18.784;2023-08-07T01:38:42;994.85;;;17.48;57.01
48810;BME280;40070;47.322;18.784;2023-08-07T01:40:44;994.86;;;17.52;56.83
48810;BME280;40070;47.322;18.784;2023-08-07T01:42:45;994.87;;;17.59;56.81
48810;BME280;40070;47.322;18.784;2023-08-07T01:44:46;994.81;;;17.56;57.08
48810;BME280;40070;47.322;18.784;2023-08-07T01:46:47;994.84;;;17.62;56.78
48810;BME280;40070;47.322;18.784;2023-08-07T01:48:49;994.85;;;17.65;56.89
48810;BME280;40070;47.322;18.784;2023-08-07T01:50:50;994.77;;;17.55;56.58
48810;BME280;40070;47.322;18.784;2023-08-07T01:52:51;994.90;;;17.64;56.53
48810;BME280;40070;47.322;18.784;2023-08-07T01:54:52;994.90;;;17.55;56.79
48810;BME280;40070;47.322;18.784;2023-08-07T01:56:53;994.93;;;17.55;56.86
48810;BME280;40070;47.322;18.784;2023-08-07T01:58:54;994.94;;;17.46;57.34
48810;BME280;40070;47.322;18.784;2023-08-07T02:00:55;994.95;;;17.58;56.92
48810;BME280;40070;47.322;18.784;2023-08-07T02:02:56;994.96;;;17.63;57.88
48810;BME280;40070;47.322;18.784;2023-08-07T02:04:57;994.96;;;17.55;56.97
48810;BME280;40070;47.322;18.784;2023-08-07T02:06:58;994.91;;;17.48;56.50
48810;BME280;40070;47.322;18.784;2023-08-07T02:08:59;994.91;;;17.56;57.00
48810;BME280;40070;47.322;18.784;2023-08-07T02:11:00;995.01;;;17.62;57.12
48810;BME280;40070;47.322;18.784;2023-08-07T02:13:01;994.97;;;17.60;56.64
48810;BME280;40070;47.322;18.784;2023-08-07T02:15:02;994.97;;;17.51;57.15
48810;BME280;40070;47.322;18.784;2023-08-07T02:17:03;995.01;;;17.48;57.22
48810;BME280;40070;47.322;18.784;2023-08-07T02:19:04;995.04;;;17.39;56.50
48810;BME280;40070;47.322;18.784;2023-08-07T02:21:05;994.98;;;17.41;57.10
48810;BME280;40070;47.322;18.784;2023-08-07T02:23:06;994.95;;;17.36;57.14
48810;BME280;40070;47.322;18.784;2023-08-07T02:25:07;995.01;;;17.38;57.20
48810;BME280;40070;47.322;18.784;2023-08-07T02:27:08;994.95;;;17.31;56.98
48810;BME280;40070;47.322;18.784;2023-08-07T02:29:09;994.96;;;17.21;57.66
48810;BME280;40070;47.322;18.784;2023-08-07T02:31:10;994.98;;;17.15;58.11
48810;BME280;40070;47.322;18.784;2023-08-07T02:33:11;995.01;;;17.29;57.52
48810;BME280;40070;47.322;18.784;2023-08-07T02:35:12;994.95;;;17.29;57.75
48810;BME280;40070;47.322;18.784;2023-08-07T02:37:13;995.03;;;17.24;57.79
48810;BME280;40070;47.322;18.784;2023-08-07T02:39:14;994.99;;;17.28;57.77
48810;BME280;40070;47.322;18.784;2023-08-07T02:41:15;995.00;;;17.10;58.24
48810;BME280;40070;47.322;18.784;2023-08-07T02:43:16;995.01;;;17.16;57.95
48810;BME280;40070;47.322;18.784;2023-08-07T02:45:17;995.00;;;17.18;57.59
48810;BME280;40070;47.322;18.784;2023-08-07T02:47:18;994.97;;;17.11;57.88
48810;BME280;40070;47.322;18.784;2023-08-07T02:49:19;994.92;;;16.99;58.22
48810;BME280;40070;47.322;18.784;2023-08-07T02:51:20;994.99;;;17.02;57.63
48810;BME280;40070;47.322;18.784;2023-08-07T02:53:21;994.95;;;16.88;58.32
48810;BME280;40070;47.322;18.784;2023-08-07T02:55:22;994.98;;;17.04;57.72
48810;BME280;40070;47.322;18.784;2023-08-07T02:57:23;995.10;;;16.85;58.12
48810;BME280;40070;47.322;18.784;2023-08-07T02:59:24;995.06;;;16.93;58.06
48810;BME280;40070;47.322;18.784;2023-08-07T03:01:25;995.07;;;16.78;58.44
48810;BME280;40070;47.322;18.784;2023-08-07T03:03:26;995.07;;;16.83;58.67
48810;BME280;40070;47.322;18.784;2023-08-07T03:05:27;995.11;;;16.83;58.42
48810;BME280;40070;47.322;18.784;2023-08-07T03:07:28;995.16;;;16.82;58.74
48810;BME280;40070;47.322;18.784;2023-08-07T03:09:29;995.10;;;16.78;58.77
48810;BME280;40070;47.322;18.784;2023-08-07T03:11:30;995.03;;;16.90;58.72
48810;BME280;40070;47.322;18.784;2023-08-07T03:13:31;995.11;;;16.77;58.49
48810;BME280;40070;47.322;18.784;2023-08-07T03:15:32;995.09;;;16.65;58.89
48810;BME280;40070;47.322;18.784;2023-08-07T03:17:32;995.11;;;16.68;59.01
48810;BME280;40070;47.322;18.784;2023-08-07T03:19:33;995.12;;;16.54;59.18
48810;BME280;40070;47.322;18.784;2023-08-07T03:21:34;995.16;;;16.59;59.28
48810;BME280;40070;47.322;18.784;2023-08-07T03:23:35;995.14;;;16.51;59.73
48810;BME280;40070;47.322;18.784;2023-08-07T03:25:36;995.15;;;16.56;59.62
48810;BME280;40070;47.322;18.784;2023-08-07T03:27:37;995.13;;;16.71;59.34
48810;BME280;40070;47.322;18.784;2023-08-07T03:29:38;995.24;;;16.70;59.75
48810;BME280;40070;47.322;18.784;2023-08-07T03:31:39;995.28;;;16.83;59.12
48810;BME280;40070;47.322;18.784;2023-08-07T03:33:41;995.29;;;16.73;59.62
48810;BME280;40070;47.322;18.784;2023-08-07T03:35:42;995.30;;;16.63;59.74
48810;BME280;40070;47.322;18.784;2023-08-07T03:37:43;995.38;;;16.48;59.95
48810;BME280;40070;47.322;18.784;2023-08-07T03:39:44;995.33;;;16.59;59.71
48810;BME280;40070;47.322;18.784;2023-08-07T03:41:45;995.41;;;16.63;59.76
48810;BME280;40070;47.322;18.784;2023-08-07T03:43:46;995.40;;;16.58;59.77
48810;BME280;40070;47.322;18.784;2023-08-07T03:45:47;995.49;;;16.58;59.70
48810;BME280;40070;47.322;18.784;2023-08-07T03:47:48;995.47;;;16.63;59.83
48810;BME280;40070;47.322;18.784;2023-08-07T03:49:49;995.46;;;16.68;60.25
48810;BME280;40070;47.322;18.784;2023-08-07T03:51:50;995.46;;;16.60;60.23
48810;BME280;40070;47.322;18.784;2023-08-07T03:53:51;995.51;;;16.53;59.91
48810;BME280;40070;47.322;18.784;2023-08-07T03:55:52;995.47;;;16.62;59.55
48810;BME280;40070;47.322;18.784;2023-08-07T03:57:53;995.50;;;16.56;59.77
48810;BME280;40070;47.322;18.784;2023-08-07T03:59:54;995.56;;;16.56;60.78
48810;BME280;40070;47.322;18.784;2023-08-07T04:01:55;995.57;;;16.62;59.07
48810;BME280;40070;47.322;18.784;2023-08-07T04:03:56;995.61;;;16.82;59.27
48810;BME280;40070;47.322;18.784;2023-08-07T04:05:57;995.62;;;16.87;59.07
48810;BME280;40070;47.322;18.784;2023-08-07T04:07:58;995.59;;;16.90;60.54
48810;BME280;40070;47.322;18.784;2023-08-07T04:09:59;995.62;;;16.68;59.83
48810;BME280;40070;47.322;18.784;2023-08-07T04:12:00;995.62;;;16.81;59.30
48810;BME280;40070;47.322;18.784;2023-08-07T04:14:01;995.64;;;16.77;59.33
48810;BME280;40070;47.322;18.784;2023-08-07T04:16:02;995.60;;;16.89;60.05
48810;BME280;40070;47.322;18.784;2023-08-07T04:18:03;995.59;;;16.97;59.50
48810;BME280;40070;47.322;18.784;2023-08-07T04:20:04;995.62;;;17.00;58.45
48810;BME280;40070;47.322;18.784;2023-08-07T04:22:05;995.71;;;17.05;59.08
48810;BME280;40070;47.322;18.784;2023-08-07T04:24:06;995.76;;;17.13;59.67
48810;BME280;40070;47.322;18.784;2023-08-07T04:26:07;995.73;;;17.04;58.92
48810;BME280;40070;47.322;18.784;2023-08-07T04:28:08;995.75;;;16.95;58.67
48810;BME280;40070;47.322;18.784;2023-08-07T04:30:09;995.78;;;17.16;59.07
48810;BME280;40070;47.322;18.784;2023-08-07T04:32:11;995.79;;;17.12;58.70
48810;BME280;40070;47.322;18.784;2023-08-07T04:34:11;995.80;;;17.09;59.05
48810;BME280;40070;47.322;18.784;2023-08-07T04:36:13;995.82;;;17.18;59.81
48810;BME280;40070;47.322;18.784;2023-08-07T04:38:14;995.84;;;17.19;58.91
48810;BME280;40070;47.322;18.784;2023-08-07T04:40:15;995.79;;;17.43;59.36
48810;BME280;40070;47.322;18.784;2023-08-07T04:42:16;995.83;;;17.26;57.91
48810;BME280;40070;47.322;18.784;2023-08-07T04:44:17;995.85;;;17.15;57.76
48810;BME280;40070;47.322;18.784;2023-08-07T04:46:18;995.79;;;17.14;58.34
48810;BME280;40070;47.322;18.784;2023-08-07T04:48:19;995.80;;;17.27;58.22
48810;BME280;40070;47.322;18.784;2023-08-07T04:50:20;995.75;;;17.29;58.50
48810;BME280;40070;47.322;18.784;2023-08-07T04:52:21;995.67;;;17.21;57.98
48810;BME280;40070;47.322;18.784;2023-08-07T04:54:22;995.71;;;17.13;57.32
48810;BME280;40070;47.322;18.784;2023-08-07T04:56:23;995.65;;;17.32;58.30
48810;BME280;40070;47.322;18.784;2023-08-07T04:58:24;995.61;;;17.37;57.47
48810;BME280;40070;47.322;18.784;2023-08-07T05:00:25;995.70;;;17.39;56.98
48810;BME280;40070;47.322;18.784;2023-08-07T05:02:26;995.70;;;17.47;56.92
48810;BME280;40070;47.322;18.784;2023-08-07T05:04:27;995.69;;;17.29;57.64
48810;BME280;40070;47.322;18.784;2023-08-07T05:06:28;995.77;;;17.45;56.98
48810;BME280;40070;47.322;18.784;2023-08-07T05:08:29;995.80;;;17.29;57.81
48810;BME280;40070;47.322;18.784;2023-08-07T05:10:30;995.77;;;17.51;57.10
48810;BME280;40070;47.322;18.784;2023-08-07T05:12:31;995.80;;;17.67;56.77
48810;BME280;40070;47.322;18.784;2023-08-07T05:14:32;995.86;;;17.66;56.72
48810;BME280;40070;47.322;18.784;2023-08-07T05:16:33;995.84;;;17.53;56.50
48810;BME280;40070;47.322;18.784;2023-08-07T05:18:34;995.80;;;17.53;55.77
48810;BME280;40070;47.322;18.784;2023-08-07T05:20:35;995.84;;;17.43;56.54
48810;BME280;40070;47.322;18.784;2023-08-07T05:22:35;995.91;;;17.27;56.85
48810;BME280;40070;47.322;18.784;2023-08-07T05:24:36;995.94;;;17.36;57.92
48810;BME280;40070;47.322;18.784;2023-08-07T05:26:37;995.87;;;17.40;57.61
48810;BME280;40070;47.322;18.784;2023-08-07T05:28:38;995.96;;;17.34;57.36
48810;BME280;40070;47.322;18.784;2023-08-07T05:30:39;995.92;;;17.43;57.64
48810;BME280;40070;47.322;18.784;2023-08-07T05:32:40;995.93;;;17.47;56.24
48810;BME280;40070;47.322;18.784;2023-08-07T05:34:43;995.88;;;17.44;55.78
48810;BME280;40070;47.322;18.784;2023-08-07T05:36:44;995.89;;;17.49;56.78
48810;BME280;40070;47.322;18.784;2023-08-07T05:38:45;995.87;;;17.57;56.07
48810;BME280;40070;47.322;18.784;2023-08-07T05:40:47;995.92;;;17.76;55.23
48810;BME280;40070;47.322;18.784;2023-08-07T05:42:49;995.91;;;17.91;54.79
48810;BME280;40070;47.322;18.784;2023-08-07T05:44:50;995.94;;;17.85;55.51
48810;BME280;40070;47.322;18.784;2023-08-07T05:46:51;995.95;;;17.84;54.38
48810;BME280;40070;47.322;18.784;2023-08-07T05:48:51;995.95;;;18.14;54.48
48810;BME280;40070;47.322;18.784;2023-08-07T05:50:52;996.00;;;18.33;53.88
48810;BME280;40070;47.322;18.784;2023-08-07T05:52:53;995.95;;;18.30;53.93
48810;BME280;40070;47.322;18.784;2023-08-07T05:54:54;996.02;;;18.33;53.27
48810;BME280;40070;47.322;18.784;2023-08-07T05:56:55;996.07;;;18.37;53.12
48810;BME280;40070;47.322;18.784;2023-08-07T05:58:56;996.11;;;18.41;53.16
48810;BME280;40070;47.322;18.784;2023-08-07T06:00:57;996.16;;;18.47;53.20
48810;BME280;40070;47.322;18.784;2023-08-07T06:02:58;996.28;;;18.53;53.59
48810;BME280;40070;47.322;18.784;2023-08-07T06:04:59;996.20;;;18.44;52.99
48810;BME280;40070;47.322;18.784;2023-08-07T06:07:00;996.18;;;18.48;52.57
48810;BME280;40070;47.322;18.784;2023-08-07T06:09:01;996.30;;;18.57;52.56
48810;BME280;40070;47.322;18.784;2023-08-07T06:11:03;996.29;;;18.70;52.63
48810;BME280;40070;47.322;18.784;2023-08-07T06:13:04;996.29;;;18.80;52.52
48810;BME280;40070;47.322;18.784;2023-08-07T06:15:05;996.33;;;18.77;52.67
48810;BME280;40070;47.322;18.784;2023-08-07T06:17:06;996.33;;;18.74;52.01
48810;BME280;40070;47.322;18.784;2023-08-07T06:19:07;996.35;;;18.77;51.99
48810;BME280;40070;47.322;18.784;2023-08-07T06:21:10;996.35;;;18.92;52.06
48810;BME280;40070;47.322;18.784;2023-08-07T06:23:12;996.28;;;19.12;52.08
48810;BME280;40070;47.322;18.784;2023-08-07T06:25:13;996.35;;;18.97;52.32
48810;BME280;40070;47.322;18.784;2023-08-07T06:27:14;996.32;;;19.02;52.72
48810;BME280;40070;47.322;18.784;2023-08-07T06:29:15;996.23;;;19.33;52.46
48810;BME280;40070;47.322;18.784;2023-08-07T06:31:16;996.35;;;19.38;52.60
48810;BME280;40070;47.322;18.784;2023-08-07T06:33:20;996.39;;;19.37;52.28
48810;BME280;40070;47.322;18.784;2023-08-07T06:35:21;996.32;;;19.28;51.25
48810;BME280;40070;47.322;18.784;2023-08-07T06:37:22;996.41;;;19.40;51.24
48810;BME280;40070;47.322;18.784;2023-08-07T06:39:23;996.43;;;19.60;50.47
48810;BME280;40070;47.322;18.784;2023-08-07T06:42:37;996.43;;;18.80;51.11
48810;BME280;40070;47.322;18.784;2023-08-07T06:44:38;996.39;;;19.04;50.90
48810;BME280;40070;47.322;18.784;2023-08-07T06:46:39;996.39;;;18.94;51.00
48810;BME280;40070;47.322;18.784;2023-08-07T06:48:40;996.37;;;19.08;50.78
48810;BME280;40070;47.322;18.784;2023-08-07T06:50:41;996.40;;;19.13;51.08
48810;BME280;40070;47.322;18.784;2023-08-07T06:52:42;996.33;;;19.20;51.36
48810;BME280;40070;47.322;18.784;2023-08-07T06:54:42;996.39;;;19.28;50.47
48810;BME280;40070;47.322;18.784;2023-08-07T06:58:16;996.50;;;18.98;52.23
48810;BME280;40070;47.322;18.784;2023-08-07T07:00:17;996.42;;;19.18;51.56
48810;BME280;40070;47.322;18.784;2023-08-07T07:02:18;996.48;;;19.11;51.31
48810;BME280;40070;47.322;18.784;2023-08-07T07:04:19;996.44;;;19.22;51.42
48810;BME280;40070;47.322;18.784;2023-08-07T07:06:20;996.48;;;19.21;52.04
48810;BME280;40070;47.322;18.784;2023-08-07T07:08:21;996.47;;;19.11;52.74
48810;BME280;40070;47.322;18.784;2023-08-07T07:10:22;996.47;;;19.37;51.52
48810;BME280;40070;47.322;18.784;2023-08-07T07:12:23;996.49;;;19.46;51.46
48810;BME280;40070;47.322;18.784;2023-08-07T07:14:24;996.48;;;19.52;50.51
48810;BME280;40070;47.322;18.784;2023-08-07T07:16:25;996.49;;;19.55;50.21
48810;BME280;40070;47.322;18.784;2023-08-07T07:18:26;996.44;;;19.44;49.57
48810;BME280;40070;47.322;18.784;2023-08-07T07:20:27;996.42;;;19.45;49.45
48810;BME280;40070;47.322;18.784;2023-08-07T07:22:28;996.42;;;19.54;49.01
48810;BME280;40070;47.322;18.784;2023-08-07T07:24:29;996.43;;;19.74;49.32
48810;BME280;40070;47.322;18.784;2023-08-07T07:26:30;996.45;;;19.79;49.14
48810;BME280;40070;47.322;18.784;2023-08-07T07:28:31;996.47;;;20.14;50.15
48810;BME280;40070;47.322;18.784;2023-08-07T07:30:32;996.45;;;20.32;48.80
48810;BME280;40070;47.322;18.784;2023-08-07T07:32:33;996.48;;;20.49;50.83
48810;BME280;40070;47.322;18.784;2023-08-07T07:34:34;996.45;;;20.57;48.65
48810;BME280;40070;47.322;18.784;2023-08-07T07:36:35;996.48;;;20.61;49.02
48810;BME280;40070;47.322;18.784;2023-08-07T07:38:36;996.55;;;20.63;47.71
48810;BME280;40070;47.322;18.784;2023-08-07T07:40:37;996.63;;;20.47;47.74
48810;BME280;40070;47.322;18.784;2023-08-07T07:42:38;996.60;;;20.34;48.22
48810;BME280;40070;47.322;18.784;2023-08-07T07:44:39;996.65;;;20.43;49.01
48810;BME280;40070;47.322;18.784;2023-08-07T07:46:40;996.69;;;20.49;47.72
48810;BME280;40070;47.322;18.784;2023-08-07T07:48:41;996.70;;;20.33;48.21
48810;BME280;40070;47.322;18.784;2023-08-07T07:50:42;996.81;;;20.36;49.01
48810;BME280;40070;47.322;18.784;2023-08-07T07:52:43;996.81;;;20.39;49.49
48810;BME280;40070;47.322;18.784;2023-08-07T07:54:44;996.82;;;20.40;49.47
48810;BME280;40070;47.322;18.784;2023-08-07T07:56:45;996.85;;;20.15;49.05
48810;BME280;40070;47.322;18.784;2023-08-07T07:58:46;996.89;;;19.89;48.93
48810;BME280;40070;47.322;18.784;2023-08-07T08:00:47;996.90;;;19.87;48.37
48810;BME280;40070;47.322;18.784;2023-08-07T08:02:48;996.97;;;19.77;48.27
48810;BME280;40070;47.322;18.784;2023-08-07T08:04:49;996.95;;;19.53;49.32
48810;BME280;40070;47.322;18.784;2023-08-07T08:06:50;997.00;;;19.52;49.41
48810;BME280;40070;47.322;18.784;2023-08-07T08:08:51;996.98;;;19.76;49.82
48810;BME280;40070;47.322;18.784;2023-08-07T08:10:51;997.02;;;19.73;48.65
48810;BME280;40070;47.322;18.784;2023-08-07T08:12:55;997.05;;;19.67;48.35
48810;BME280;40070;47.322;18.784;2023-08-07T08:14:56;997.09;;;19.97;48.24
48810;BME280;40070;47.322;18.784;2023-08-07T08:16:57;997.13;;;20.00;47.77
48810;BME280;40070;47.322;18.784;2023-08-07T08:18:58;997.14;;;20.00;47.24
48810;BME280;40070;47.322;18.784;2023-08-07T08:20:59;997.14;;;19.99;48.05
48810;BME280;40070;47.322;18.784;2023-08-07T08:23:00;997.14;;;20.09;47.70
48810;BME280;40070;47.322;18.784;2023-08-07T08:25:01;997.14;;;19.96;47.72
48810;BME280;40070;47.322;18.784;2023-08-07T08:27:02;997.17;;;19.97;47.75
48810;BME280;40070;47.322;18.784;2023-08-07T08:29:05;997.25;;;19.68;49.05
48810;BME280;40070;47.322;18.784;2023-08-07T08:31:06;997.31;;;19.84;48.31
48810;BME280;40070;47.322;18.784;2023-08-07T08:33:07;997.24;;;19.87;47.54
48810;BME280;40070;47.322;18.784;2023-08-07T08:35:08;997.26;;;19.98;48.39
48810;BME280;40070;47.322;18.784;2023-08-07T08:37:10;997.28;;;19.84;48.70
48810;BME280;40070;47.322;18.784;2023-08-07T08:39:12;997.34;;;19.87;47.95
48810;BME280;40070;47.322;18.784;2023-08-07T08:41:13;997.39;;;19.79;48.15
48810;BME280;40070;47.322;18.784;2023-08-07T08:43:14;997.36;;;19.86;48.04
48810;BME280;40070;47.322;18.784;2023-08-07T08:45:15;997.47;;;19.79;49.04
48810;BME280;40070;47.322;18.784;2023-08-07T08:47:16;997.45;;;19.98;48.76
48810;BME280;40070;47.322;18.784;2023-08-07T08:49:18;997.49;;;20.02;48.38
48810;BME280;40070;47.322;18.784;2023-08-07T08:51:22;997.47;;;20.00;48.97
48810;BME280;40070;47.322;18.784;2023-08-07T08:53:24;997.46;;;20.06;48.91
48810;BME280;40070;47.322;18.784;2023-08-07T08:55:26;997.54;;;20.25;48.58
48810;BME280;40070;47.322;18.784;2023-08-07T08:57:27;997.54;;;20.22;49.55
48810;BME280;40070;47.322;18.784;2023-08-07T08:59:28;997.52;;;20.17;48.17
48810;BME280;40070;47.322;18.784;2023-08-07T09:01:29;997.58;;;20.10;48.64
48810;BME280;40070;47.322;18.784;2023-08-07T09:03:31;997.62;;;20.34;48.83
48810;BME280;40070;47.322;18.784;2023-08-07T09:05:32;997.53;;;20.58;48.39
48810;BME280;40070;47.322;18.784;2023-08-07T09:07:33;997.58;;;20.90;48.23
48810;BME280;40070;47.322;18.784;2023-08-07T09:09:35;997.57;;;21.12;47.81
48810;BME280;40070;47.322;18.784;2023-08-07T09:11:37;997.60;;;21.13;47.21
48810;BME280;40070;47.322;18.784;2023-08-07T09:13:39;997.66;;;21.04;48.04
48810;BME280;40070;47.322;18.784;2023-08-07T09:15:41;997.71;;;20.97;47.02
48810;BME280;40070;47.322;18.784;2023-08-07T09:17:44;997.71;;;20.82;47.02
48810;BME280;40070;47.322;18.784;2023-08-07T09:19:45;997.73;;;20.89;47.60
48810;BME280;40070;47.322;18.784;2023-08-07T09:21:46;997.77;;;21.08;47.02
48810;BME280;40070;47.322;18.784;2023-08-07T09:24:57;997.74;;;20.80;47.93
48810;BME280;40070;47.322;18.784;2023-08-07T09:26:58;997.73;;;21.23;46.50
48810;BME280;40070;47.322;18.784;2023-08-07T09:28:59;997.69;;;21.10;45.61
48810;BME280;40070;47.322;18.784;2023-08-07T09:31:00;997.75;;;21.32;46.36
48810;BME280;40070;47.322;18.784;2023-08-07T09:33:01;997.81;;;21.14;45.60
48810;BME280;40070;47.322;18.784;2023-08-07T09:35:03;997.83;;;21.06;44.67
48810;BME280;40070;47.322;18.784;2023-08-07T09:37:04;997.76;;;20.87;44.94
48810;BME280;40070;47.322;18.784;2023-08-07T09:39:05;997.89;;;20.91;45.85
48810;BME280;40070;47.322;18.784;2023-08-07T09:41:06;997.89;;;20.75;46.12
48810;BME280;40070;47.322;18.784;2023-08-07T09:43:07;997.94;;;20.60;45.03
48810;BME280;40070;47.322;18.784;2023-08-07T09:45:24;997.97;;;20.31;45.58
48810;BME280;40070;47.322;18.784;2023-08-07T09:47:25;997.96;;;20.27;45.80
48810;BME280;40070;47.322;18.784;2023-08-07T09:49:32;998.00;;;20.19;46.48
48810;BME280;40070;47.322;18.784;2023-08-07T09:51:43;998.03;;;20.27;46.17
48810;BME280;40070;47.322;18.784;2023-08-07T09:53:44;997.98;;;20.63;45.96
48810;BME280;40070;47.322;18.784;2023-08-07T09:55:47;998.00;;;21.01;44.91
48810;BME280;40070;47.322;18.784;2023-08-07T09:57:48;997.99;;;21.22;45.16
48810;BME280;40070;47.322;18.784;2023-08-07T09:59:49;998.00;;;21.20;43.69
48810;BME280;40070;47.322;18.784;2023-08-07T10:01:51;997.98;;;20.98;43.45
48810;BME280;40070;47.322;18.784;2023-08-07T10:03:52;998.07;;;21.19;43.86
48810;BME280;40070;47.322;18.784;2023-08-07T10:05:53;997.92;;;21.48;43.43
48810;BME280;40070;47.322;18.784;2023-08-07T10:07:55;997.97;;;21.55;42.92
48810;BME280;40070;47.322;18.784;2023-08-07T10:09:56;997.99;;;21.42;43.39
48810;BME280;40070;47.322;18.784;2023-08-07T10:11:57;997.97;;;20.97;43.35
48810;BME280;40070;47.322;18.784;2023-08-07T10:13:59;997.89;;;20.88;43.99
48810;BME280;40070;47.322;18.784;2023-08-07T10:16:01;997.96;;;21.03;44.27
48810;BME280;40070;47.322;18.784;2023-08-07T10:18:03;997.98;;;21.10;43.39
48810;BME280;40070;47.322;18.784;2023-08-07T10:20:04;998.08;;;21.33;42.31
48810;BME280;40070;47.322;18.784;2023-08-07T10:22:06;997.89;;;21.52;41.79
48810;BME280;40070;47.322;18.784;2023-08-07T10:24:07;997.95;;;21.68;40.93
48810;BME280;40070;47.322;18.784;2023-08-07T10:26:09;998.12;;;21.90;42.06
48810;BME280;40070;47.322;18.784;2023-08-07T10:28:12;998.10;;;21.85;40.94
48810;BME280;40070;47.322;18.784;2023-08-07T10:30:14;998.10;;;21.73;41.18
48810;BME280;40070;47.322;18.784;2023-08-07T10:32:19;998.13;;;21.66;41.62
48810;BME280;40070;47.322;18.784;2023-08-07T10:34:21;998.10;;;21.69;41.45
48810;BME280;40070;47.322;18.784;2023-08-07T10:36:22;998.11;;;21.57;41.69
48810;BME280;40070;47.322;18.784;2023-08-07T10:38:23;998.14;;;21.70;42.14
48810;BME280;40070;47.322;18.784;2023-08-07T10:40:24;998.11;;;21.65;41.05
48810;BME280;40070;47.322;18.784;2023-08-07T10:42:25;998.21;;;21.93;42.02
48810;BME280;40070;47.322;18.784;2023-08-07T10:44:29;998.20;;;22.00;41.42
48810;BME280;40070;47.322;18.784;2023-08-07T10:46:44;998.18;;;22.02;40.54
48810;BME280;40070;47.322;18.784;2023-08-07T10:48:44;998.25;;;21.64;40.81
48810;BME280;40070;47.322;18.784;2023-08-07T10:50:58;998.36;;;21.52;41.68
48810;BME280;40070;47.322;18.784;2023-08-07T10:53:04;998.11;;;21.62;42.16
48810;BME280;40070;47.322;18.784;2023-08-07T10:55:12;998.30;;;21.77;41.88
48810;BME280;40070;47.322;18.784;2023-08-07T10:57:13;998.26;;;21.75;41.91